createdAt,value
2019-04-27T00:02:01.817Z,9.43
2019-04-27T00:05:32.013Z,8.25
2019-04-27T00:08:39.048Z,7.72
2019-04-27T00:11:45.531Z,8.78
2019-04-27T00:14:48.273Z,8.88
2019-04-27T00:17:58.203Z,9.48
2019-04-27T00:21:17.908Z,9.28
2019-04-27T00:24:19.989Z,8.73
2019-04-27T00:27:21.268Z,9.10
2019-04-27T00:30:23.526Z,9.38
2019-04-27T00:33:25.014Z,8.78
2019-04-27T00:36:35.244Z,9.93
2019-04-27T00:42:45.901Z,9.23
2019-04-27T00:45:47.485Z,8.65
2019-04-27T00:48:49.191Z,9.10
2019-04-27T00:51:50.490Z,8.55
2019-04-27T00:54:51.766Z,9.68
2019-04-27T00:58:10.196Z,9.13
2019-04-27T01:01:14.992Z,9.53
2019-04-27T01:04:18.459Z,9.25
2019-04-27T01:07:20.519Z,9.75
2019-04-27T01:10:23.347Z,9.55
2019-04-27T01:13:24.825Z,9.20
2019-04-27T01:16:26.559Z,8.90
2019-04-27T01:19:28.957Z,10.18
2019-04-27T01:22:30.363Z,9.68
2019-04-27T01:25:38.823Z,9.55
2019-04-27T01:28:42.040Z,10.40
2019-04-27T01:31:43.814Z,9.40
2019-04-27T01:34:45.198Z,9.80
2019-04-27T01:37:48.665Z,9.78
2019-04-27T01:40:49.971Z,10.32
2019-04-27T01:43:51.279Z,10.13
2019-04-27T01:46:52.876Z,9.78
2019-04-27T01:49:54.166Z,9.83
2019-04-27T01:52:55.649Z,11.15
2019-04-27T01:55:59.048Z,9.75
2019-04-27T01:59:00.357Z,9.70
2019-04-27T02:02:03.959Z,10.10
2019-04-27T02:05:08.970Z,9.98
2019-04-27T02:08:10.613Z,10.85
2019-04-27T02:11:12.133Z,10.18
2019-04-27T02:14:13.403Z,10.82
2019-04-27T02:17:15.150Z,9.58
2019-04-27T02:20:16.558Z,10.55
2019-04-27T02:23:19.234Z,9.83
2019-04-27T02:26:21.594Z,10.48
2019-04-27T02:29:34.463Z,9.88
2019-04-27T02:32:39.734Z,10.35
2019-04-27T02:35:42.028Z,10.35
2019-04-27T02:38:43.593Z,10.88
2019-04-27T02:41:44.890Z,10.55
2019-04-27T02:44:49.380Z,11.53
2019-04-27T02:47:51.869Z,10.75
2019-04-27T02:50:59.913Z,10.75
2019-04-27T02:54:01.707Z,10.15
2019-04-27T02:57:03.417Z,11.00
2019-04-27T03:00:05.189Z,10.70
2019-04-27T03:03:10.267Z,10.53
2019-04-27T03:06:11.614Z,11.05
2019-04-27T03:09:32.873Z,9.78
2019-04-27T03:12:36.062Z,11.30
2019-04-27T03:15:45.193Z,11.50
2019-04-27T03:19:14.315Z,11.28
2019-04-27T03:22:29.586Z,10.68
2019-04-27T03:25:32.957Z,10.48
2019-04-27T03:28:34.254Z,10.78
2019-04-27T03:31:36.899Z,11.38
2019-04-27T03:34:41.782Z,12.07
2019-04-27T03:37:42.066Z,12.20
2019-04-27T03:40:43.374Z,11.73
2019-04-27T03:43:45.831Z,11.73
2019-04-27T03:46:49.483Z,13.13
2019-04-27T03:49:50.916Z,11.33
2019-04-27T03:52:54.347Z,11.38
2019-04-27T03:55:59.962Z,12.60
2019-04-27T03:59:03.044Z,12.03
2019-04-27T04:02:05.105Z,11.97
2019-04-27T04:05:09.642Z,11.78
2019-04-27T04:08:10.942Z,10.70
2019-04-27T04:11:14.287Z,10.58
2019-04-27T04:14:20.105Z,11.43
2019-04-27T04:20:46.407Z,11.20
2019-04-27T04:23:49.477Z,11.35
2019-04-27T04:26:53.114Z,11.73
2019-04-27T04:29:54.389Z,11.33
2019-04-27T04:32:56.321Z,12.07
2019-04-27T04:35:59.666Z,10.25
2019-04-27T04:39:00.913Z,11.40
2019-04-27T04:42:04.069Z,11.35
2019-04-27T04:45:07.272Z,10.95
2019-04-27T04:48:10.462Z,10.93
2019-04-27T04:51:12.252Z,11.75
2019-04-27T04:54:13.539Z,11.12
2019-04-27T04:57:15.519Z,11.12
2019-04-27T05:00:19.751Z,10.82
2019-04-27T05:03:21.825Z,11.35
2019-04-27T05:06:25.509Z,11.68
2019-04-27T05:09:26.630Z,11.05
2019-04-27T05:12:28.792Z,11.93
2019-04-27T05:15:30.562Z,11.40
2019-04-27T05:18:31.873Z,11.25
2019-04-27T05:21:34.311Z,16.17
2019-04-27T05:24:35.602Z,11.08
2019-04-27T05:27:38.957Z,11.03
2019-04-27T05:30:40.466Z,10.45
2019-04-27T05:33:41.946Z,10.85
2019-04-27T05:36:48.758Z,11.43
2019-04-27T05:39:46.518Z,12.05
2019-04-27T05:42:48.823Z,10.85
2019-04-27T05:46:29.750Z,11.35
2019-04-27T05:49:41.164Z,10.70
2019-04-27T05:52:41.001Z,11.15
2019-04-27T05:55:42.297Z,10.82
2019-04-27T05:58:43.799Z,11.40
2019-04-27T06:01:45.082Z,11.10
2019-04-27T06:04:46.585Z,9.90
2019-04-27T06:07:48.761Z,10.00
2019-04-27T06:10:50.441Z,11.57
2019-04-27T06:13:51.745Z,10.90
2019-04-27T06:16:53.239Z,9.43
2019-04-27T06:19:55.038Z,11.25
2019-04-27T06:22:58.896Z,10.38
2019-04-27T06:26:01.748Z,9.80
2019-04-27T06:29:03.592Z,9.35
2019-04-27T06:32:04.865Z,10.35
2019-04-27T06:35:06.385Z,9.53
2019-04-27T06:38:07.746Z,9.70
2019-04-27T06:41:09.990Z,9.23
2019-04-27T06:44:11.573Z,9.80
2019-04-27T06:47:13.093Z,9.90
2019-04-27T06:50:14.505Z,11.18
2019-04-27T06:53:15.965Z,10.10
2019-04-27T06:56:18.530Z,10.93
2019-04-27T06:59:19.953Z,10.10
2019-04-27T07:02:22.283Z,9.23
2019-04-27T07:05:23.771Z,9.45
2019-04-27T07:08:25.353Z,8.65
2019-04-27T07:11:26.630Z,8.10
2019-04-27T07:14:29.472Z,8.90
2019-04-27T07:17:31.031Z,9.10
2019-04-27T07:20:32.402Z,9.35
2019-04-27T07:23:36.210Z,9.95
2019-04-27T07:26:39.082Z,9.00
2019-04-27T07:29:44.629Z,8.40
2019-04-27T07:32:44.918Z,8.75
2019-04-27T07:35:46.201Z,8.28
2019-04-27T07:38:48.584Z,8.28
2019-04-27T07:41:49.958Z,8.35
2019-04-27T07:44:53.235Z,8.25
2019-04-27T07:47:54.790Z,8.98
2019-04-27T07:50:56.487Z,9.28
2019-04-27T07:53:58.944Z,9.08
2019-04-27T07:57:00.468Z,8.80
2019-04-27T08:00:04.104Z,7.83
2019-04-27T08:03:05.362Z,7.87
2019-04-27T08:06:08.497Z,9.13
2019-04-27T08:09:10.086Z,8.68
2019-04-27T08:12:11.567Z,8.63
2019-04-27T08:15:12.878Z,8.40
2019-04-27T08:18:14.753Z,9.15
2019-04-27T08:21:16.350Z,8.80
2019-04-27T08:24:19.412Z,9.28
2019-04-27T08:27:34.943Z,8.80
2019-04-27T08:30:39.360Z,8.40
2019-04-27T08:33:41.154Z,8.88
2019-04-27T08:36:42.487Z,7.78
2019-04-27T08:39:43.991Z,7.53
2019-04-27T08:42:45.330Z,8.90
2019-04-27T08:45:48.345Z,8.43
2019-04-27T08:48:50.133Z,8.83
2019-04-27T08:51:58.827Z,9.15
2019-04-27T08:54:54.960Z,8.65
2019-04-27T08:57:58.558Z,8.35
2019-04-27T09:01:00.022Z,7.78
2019-04-27T09:04:01.572Z,8.53
2019-04-27T09:07:21.673Z,8.03
2019-04-27T09:13:32.486Z,7.80
2019-04-27T09:16:35.794Z,7.60
2019-04-27T09:19:59.152Z,7.62
2019-04-27T09:22:59.407Z,7.55
2019-04-27T09:26:00.691Z,7.80
2019-04-27T09:29:01.994Z,7.83
2019-04-27T09:32:03.867Z,6.80
2019-04-27T09:35:05.925Z,7.65
2019-04-27T09:38:08.349Z,8.20
2019-04-27T09:41:10.361Z,7.58
2019-04-27T09:44:11.703Z,7.25
2019-04-27T09:47:13.366Z,7.17
2019-04-27T09:50:16.202Z,7.22
2019-04-27T09:53:18.145Z,7.20
2019-04-27T09:56:20.240Z,8.15
2019-04-27T09:59:21.828Z,8.13
2019-04-27T10:02:23.165Z,7.33
2019-04-27T10:05:26.282Z,7.92
2019-04-27T10:08:28.133Z,7.65
2019-04-27T10:11:30.180Z,7.40
2019-04-27T10:14:33.526Z,6.95
2019-04-27T10:17:35.192Z,7.53
2019-04-27T10:20:40.545Z,8.03
2019-04-27T10:23:41.318Z,7.60
2019-04-27T10:26:43.865Z,6.60
2019-04-27T10:29:46.734Z,6.70
2019-04-27T10:32:48.975Z,7.10
2019-04-27T10:35:50.365Z,6.97
2019-04-27T10:38:51.663Z,6.42
2019-04-27T10:41:53.149Z,7.67
2019-04-27T10:44:56.040Z,6.95
2019-04-27T10:47:57.557Z,7.25
2019-04-27T10:50:59.323Z,7.75
2019-04-27T10:54:01.639Z,7.42
2019-04-27T10:57:05.934Z,8.08
2019-04-27T11:00:08.776Z,7.80
2019-04-27T11:03:11.192Z,8.43
2019-04-27T11:06:36.715Z,8.08
2019-04-27T11:09:38.700Z,7.45
2019-04-27T11:12:40.678Z,8.43
2019-04-27T11:15:42.313Z,7.95
2019-04-27T11:18:44.352Z,7.62
2019-04-27T11:21:45.640Z,7.42
2019-04-27T11:24:47.905Z,6.80
2019-04-27T11:27:49.690Z,6.42
2019-04-27T11:30:51.094Z,7.22
2019-04-27T11:33:53.617Z,7.42
2019-04-27T11:36:57.906Z,7.35
2019-04-27T11:39:59.792Z,7.62
2019-04-27T11:43:01.194Z,7.92
2019-04-27T11:46:02.514Z,8.15
2019-04-27T11:49:04.119Z,7.60
2019-04-27T11:52:05.870Z,8.25
2019-04-27T11:55:07.571Z,8.23
2019-04-27T11:58:08.862Z,8.68
2019-04-27T12:01:10.514Z,8.78
2019-04-27T12:04:11.870Z,9.78
2019-04-27T12:07:13.315Z,8.70
2019-04-27T12:10:15.841Z,8.90
2019-04-27T12:13:17.348Z,8.75
2019-04-27T12:16:18.699Z,10.18
2019-04-27T12:19:20.471Z,8.95
2019-04-27T12:22:22.531Z,10.72
2019-04-27T12:25:23.992Z,9.60
2019-04-27T12:28:27.527Z,10.25
2019-04-27T12:31:30.735Z,10.00
2019-04-27T12:34:36.107Z,11.18
2019-04-27T12:37:38.785Z,12.98
2019-04-27T12:40:40.276Z,12.37
2019-04-27T12:43:42.118Z,12.28
2019-04-27T12:46:43.690Z,12.18
2019-04-27T12:49:45.370Z,11.95
2019-04-27T12:52:58.084Z,11.90
2019-04-27T12:56:16.739Z,12.50
2019-04-27T12:59:37.198Z,12.05
2019-04-27T13:02:38.617Z,13.72
2019-04-27T13:05:40.529Z,13.83
2019-04-27T13:08:42.547Z,13.72
2019-04-27T13:11:45.812Z,14.30
2019-04-27T13:14:47.999Z,14.20
2019-04-27T13:17:49.385Z,13.90
2019-04-27T13:20:50.827Z,15.10
2019-04-27T13:24:03.629Z,14.18
2019-04-27T13:26:57.298Z,14.60
2019-04-27T13:29:59.544Z,14.07
2019-04-27T13:33:00.979Z,15.13
2019-04-27T13:36:02.758Z,15.05
2019-04-27T13:39:06.325Z,14.55
2019-04-27T13:42:07.854Z,14.85
2019-04-27T13:45:11.474Z,14.13
2019-04-27T13:48:17.762Z,13.53
2019-04-27T13:51:36.556Z,13.60
2019-04-27T13:54:38.338Z,12.70
2019-04-27T13:57:50.035Z,13.05
2019-04-27T14:00:44.058Z,13.78
2019-04-27T14:03:45.762Z,12.82
2019-04-27T14:06:47.054Z,13.95
2019-04-27T14:09:50.496Z,13.48
2019-04-27T14:12:51.921Z,13.78
2019-04-27T14:15:53.964Z,13.78
2019-04-27T14:18:55.492Z,15.18
2019-04-27T14:21:56.978Z,14.95
2019-04-27T14:24:58.673Z,14.75
2019-04-27T14:28:00.452Z,14.35
2019-04-27T14:31:01.722Z,15.23
2019-04-27T14:34:06.635Z,15.93
2019-04-27T14:37:08.640Z,16.80
2019-04-27T14:40:10.926Z,18.90
2019-04-27T14:43:12.223Z,19.02
2019-04-27T14:46:14.010Z,18.52
2019-04-27T14:49:15.463Z,19.37
2019-04-27T14:52:18.756Z,20.17
2019-04-27T14:55:20.281Z,19.12
2019-04-27T14:58:21.784Z,21.23
2019-04-27T15:01:25.258Z,20.60
2019-04-27T15:04:28.870Z,22.50
2019-04-27T15:07:30.126Z,34.38
2019-04-27T15:10:35.879Z,24.25
2019-04-27T15:13:37.776Z,45.98
2019-04-27T15:16:42.669Z,49.15
2019-04-27T15:19:52.769Z,23.50
2019-04-27T15:22:56.879Z,26.48
2019-04-27T15:25:56.710Z,41.95
2019-04-27T15:28:59.969Z,24.32
2019-04-27T15:32:04.247Z,42.43
2019-04-27T15:35:10.587Z,35.88
2019-04-27T15:38:14.326Z,31.00
2019-04-27T15:41:32.583Z,24.23
2019-04-27T15:44:41.114Z,24.05
2019-04-27T15:47:42.452Z,26.12
2019-04-27T15:50:43.947Z,27.20
2019-04-27T15:53:50.807Z,27.37
2019-04-27T15:56:49.287Z,43.68
2019-04-27T15:59:50.573Z,85.90
2019-04-27T16:02:52.734Z,30.10
2019-04-27T16:05:54.322Z,28.47
2019-04-27T16:08:55.642Z,32.93
2019-04-27T16:12:07.112Z,30.97
2019-04-27T16:15:01.930Z,32.50
2019-04-27T16:18:03.210Z,31.20
2019-04-27T16:21:07.164Z,33.45
2019-04-27T16:24:08.494Z,46.50
2019-04-27T16:27:11.076Z,33.75
2019-04-27T16:30:17.927Z,41.95
2019-04-27T16:33:20.258Z,34.85
2019-04-27T16:36:19.823Z,34.85
2019-04-27T16:39:21.363Z,34.30
2019-04-27T16:42:22.962Z,34.38
2019-04-27T16:45:27.065Z,35.78
2019-04-27T16:48:34.359Z,37.15
2019-04-27T16:51:36.679Z,37.85
2019-04-27T16:54:35.535Z,37.10
2019-04-27T16:57:39.976Z,39.35
2019-04-27T17:00:40.850Z,40.17
2019-04-27T17:03:42.721Z,41.37
2019-04-27T17:06:45.979Z,43.87
2019-04-27T17:09:49.421Z,45.55
2019-04-27T17:12:51.794Z,46.80
2019-04-27T17:16:13.389Z,46.30
2019-04-27T17:19:16.698Z,45.05
2019-04-27T17:22:20.221Z,47.35
2019-04-27T17:25:23.468Z,47.08
2019-04-27T17:28:27.166Z,45.75
2019-04-27T17:31:30.533Z,44.48
2019-04-27T17:34:31.821Z,43.63
2019-04-27T17:37:33.913Z,44.70
2019-04-27T17:40:36.037Z,44.88
2019-04-27T17:43:41.285Z,47.35
2019-04-27T17:46:42.755Z,42.85
2019-04-27T17:49:44.460Z,42.45
2019-04-27T17:52:48.485Z,41.85
2019-04-27T17:55:49.149Z,42.62
2019-04-27T17:58:52.327Z,42.55
2019-04-27T18:02:00.963Z,42.53
2019-04-27T18:04:58.864Z,40.67
2019-04-27T18:08:00.862Z,40.70
2019-04-27T18:11:03.250Z,41.42
2019-04-27T18:14:05.869Z,40.88
2019-04-27T18:17:10.383Z,38.10
2019-04-27T18:20:26.689Z,38.00
2019-04-27T18:23:36.610Z,39.50
2019-04-27T18:26:49.100Z,38.53
2019-04-27T18:29:43.806Z,38.60
2019-04-27T18:32:45.631Z,37.60
2019-04-27T18:35:49.117Z,36.03
2019-04-27T18:38:52.120Z,35.05
2019-04-27T18:41:54.356Z,35.78
2019-04-27T18:44:56.355Z,34.60
2019-04-27T18:48:00.305Z,33.58
2019-04-27T18:51:03.972Z,34.58
2019-04-27T18:54:05.598Z,33.35
2019-04-27T18:57:10.914Z,33.78
2019-04-27T19:00:12.559Z,32.93
2019-04-27T19:03:13.966Z,32.23
2019-04-27T19:06:15.451Z,32.88
2019-04-27T19:09:18.650Z,31.40
2019-04-27T19:12:20.654Z,33.20
2019-04-27T19:15:22.573Z,32.95
2019-04-27T19:18:24.427Z,32.38
2019-04-27T19:21:26.494Z,32.60
2019-04-27T19:24:28.284Z,29.67
2019-04-27T19:27:50.303Z,29.80
2019-04-27T19:30:53.740Z,28.50
2019-04-27T19:33:56.566Z,29.35
2019-04-27T19:36:59.647Z,29.12
2019-04-27T19:40:01.042Z,29.15
2019-04-27T19:43:02.538Z,29.63
2019-04-27T19:46:04.017Z,30.57
2019-04-27T19:49:05.419Z,31.37
2019-04-27T19:52:08.545Z,30.20
2019-04-27T19:55:10.718Z,29.42
2019-04-27T19:58:13.490Z,30.65
2019-04-27T20:01:19.878Z,30.05
2019-04-27T20:04:30.801Z,30.35
2019-04-27T20:07:32.384Z,31.75
2019-04-27T20:10:34.367Z,30.27
2019-04-27T20:13:35.983Z,29.63
2019-04-27T20:16:37.969Z,29.25
2019-04-27T20:19:39.530Z,27.22
2019-04-27T20:22:42.030Z,28.73
2019-04-27T20:25:43.461Z,29.45
2019-04-27T20:28:45.271Z,28.62
2019-04-27T20:31:47.537Z,28.95
2019-04-27T20:34:50.830Z,27.45
2019-04-27T20:37:52.555Z,28.90
2019-04-27T20:40:54.293Z,31.15
2019-04-27T20:43:55.744Z,31.10
2019-04-27T20:46:57.587Z,30.57
2019-04-27T20:49:59.184Z,27.55
2019-04-27T20:53:02.483Z,28.32
2019-04-27T20:56:03.877Z,27.00
2019-04-27T20:59:05.508Z,27.27
2019-04-27T21:02:27.066Z,27.67
2019-04-27T21:05:47.262Z,28.67
2019-04-27T21:08:48.802Z,28.62
2019-04-27T21:11:50.315Z,28.67
2019-04-27T21:14:52.013Z,29.10
2019-04-27T21:17:53.685Z,29.90
2019-04-27T21:20:55.169Z,30.57
2019-04-27T21:23:56.798Z,30.10
2019-04-27T21:26:58.077Z,30.50
2019-04-27T21:29:59.577Z,28.23
2019-04-27T21:33:01.217Z,29.05
2019-04-27T21:36:03.202Z,29.75
2019-04-27T21:39:05.762Z,29.32
2019-04-27T21:42:07.165Z,31.17
2019-04-27T21:45:08.449Z,30.95
2019-04-27T21:48:10.966Z,31.30
2019-04-27T21:51:12.366Z,30.55
2019-04-27T21:54:15.598Z,31.37
2019-04-27T21:57:17.061Z,32.15
2019-04-27T22:00:42.727Z,31.17
2019-04-27T22:03:45.243Z,32.95
2019-04-27T22:06:46.819Z,32.45
2019-04-27T22:09:48.117Z,34.20
2019-04-27T22:12:49.447Z,32.23
2019-04-27T22:15:50.980Z,32.67
2019-04-27T22:18:52.489Z,33.53
2019-04-27T22:21:54.660Z,35.13
2019-04-27T22:24:57.855Z,36.40
2019-04-27T22:28:01.457Z,35.73
2019-04-27T22:31:02.886Z,36.15
2019-04-27T22:34:04.374Z,35.20
2019-04-27T22:37:06.178Z,36.50
2019-04-27T22:40:21.542Z,35.25
2019-04-27T22:43:31.542Z,36.58
2019-04-27T22:46:35.868Z,37.00
2019-04-27T22:49:37.142Z,39.42
2019-04-27T22:52:38.789Z,43.13
2019-04-27T22:55:58.551Z,41.37
2019-04-27T22:59:04.075Z,42.88
2019-04-27T23:02:19.042Z,40.03
2019-04-27T23:05:21.197Z,38.65
2019-04-27T23:08:22.697Z,37.80
2019-04-27T23:11:24.200Z,37.48
2019-04-27T23:14:25.505Z,37.28
2019-04-27T23:17:46.898Z,36.45
2019-04-27T23:20:48.679Z,36.63
2019-04-27T23:23:51.740Z,36.08
2019-04-27T23:26:53.355Z,37.03
2019-04-27T23:29:54.652Z,35.28
2019-04-27T23:32:56.293Z,35.30
2019-04-27T23:35:57.597Z,32.95
2019-04-27T23:39:00.891Z,33.08
2019-04-27T23:42:06.648Z,33.63
2019-04-27T23:45:06.710Z,35.78
2019-04-27T23:48:08.099Z,33.05
2019-04-27T23:51:14.152Z,32.58
2019-04-27T23:54:15.502Z,33.73
2019-04-27T23:57:16.976Z,33.98
